Time;durP1;ratioP1;P1;durP2;ratioP2;P2;SDS_P1;SDS_P2;PMS_P1;PMS_P2;Temp;Humidity;BMP_temperature;BMP_pressure;BME280_temperature;BME280_humidity;BME280_pressure;Samples;Min_cycle;Max_cycle;Signal;HPM_P1;HPM_P2
2022/12/25 00:00:29;;;;;;;15.63;9.37;;;11.60;99.90;;;;;;5000823;28;20183;-71
2022/12/25 00:02:54;;;;;;;9.87;5.80;;;11.60;99.90;;;;;;5005791;28;20200;-72
2022/12/25 00:05:20;;;;;;;14.37;6.80;;;11.60;99.90;;;;;;5002907;28;20213;-71
2022/12/25 00:07:46;;;;;;;8.03;3.87;;;11.60;99.90;;;;;;5010668;28;20266;-72
2022/12/25 00:10:12;;;;;;;9.10;3.60;;;11.70;99.90;;;;;;5012802;28;20554;-70
2022/12/25 00:12:37;;;;;;;9.60;4.80;;;11.70;99.90;;;;;;5004196;28;20176;-71
2022/12/25 00:15:04;;;;;;;9.13;4.70;;;11.70;99.90;;;;;;5005202;28;20249;-71
2022/12/25 00:17:30;;;;;;;10.13;5.43;;;11.70;99.90;;;;;;5006508;28;20875;-71
2022/12/25 00:19:55;;;;;;;8.37;3.70;;;11.70;99.90;;;;;;5012531;28;20217;-71
2022/12/25 00:22:21;;;;;;;6.00;3.17;;;11.70;99.90;;;;;;5009240;28;20680;-70
2022/12/25 00:24:47;;;;;;;7.63;3.17;;;11.70;99.90;;;;;;5011575;28;20224;-70
2022/12/25 00:27:14;;;;;;;12.43;6.07;;;11.70;99.90;;;;;;5011341;28;20226;-71
2022/12/25 00:29:40;;;;;;;12.37;8.57;;;11.70;99.90;;;;;;5009760;28;20181;-71
2022/12/25 00:32:05;;;;;;;15.03;7.90;;;11.70;99.90;;;;;;5009716;28;20645;-71
2022/12/25 00:34:31;;;;;;;17.23;10.53;;;11.60;99.90;;;;;;5011911;28;20275;-70
2022/12/25 00:36:57;;;;;;;12.40;6.60;;;11.70;99.90;;;;;;5012968;28;20278;-71
2022/12/25 00:39:23;;;;;;;9.20;5.20;;;11.70;99.90;;;;;;5010438;28;20190;-71
2022/12/25 00:44:34;;;;;;;9.97;4.93;;;11.70;99.90;;;;;;5003696;28;20199;-71
2022/12/25 00:47:00;;;;;;;6.23;3.40;;;11.70;99.90;;;;;;5010308;28;20716;-70
2022/12/25 00:49:25;;;;;;;9.13;5.90;;;11.70;99.90;;;;;;5013399;28;20268;-71
2022/12/25 00:51:51;;;;;;;11.07;3.70;;;11.60;99.90;;;;;;5010613;28;20172;-71
2022/12/25 00:54:18;;;;;;;8.37;3.50;;;11.60;99.90;;;;;;5008853;28;20190;-71
2022/12/25 00:56:44;;;;;;;11.13;5.07;;;11.60;99.90;;;;;;5010388;28;20222;-71
2022/12/25 00:59:10;;;;;;;7.43;3.63;;;11.60;99.90;;;;;;5008837;28;20230;-71
2022/12/25 01:01:37;;;;;;;7.13;3.37;;;11.60;99.90;;;;;;5008701;28;20179;-71
2022/12/25 01:04:03;;;;;;;6.40;3.07;;;11.60;99.90;;;;;;5002623;28;20218;-70
2022/12/25 01:06:30;;;;;;;6.23;3.43;;;11.60;99.90;;;;;;5008892;28;20202;-71
2022/12/25 01:11:42;;;;;;;9.00;4.00;;;11.70;99.90;;;;;;5007893;28;20197;-71
2022/12/25 01:14:10;;;;;;;10.27;5.17;;;11.60;99.90;;;;;;5009348;28;20195;-71
2022/12/25 01:16:36;;;;;;;11.63;4.97;;;11.60;99.90;;;;;;5006936;28;20197;-71
2022/12/25 01:19:02;;;;;;;9.50;4.50;;;11.60;99.90;;;;;;5014684;28;20338;-71
2022/12/25 01:21:28;;;;;;;16.13;7.97;;;11.60;99.90;;;;;;5007899;28;20716;-71
2022/12/25 01:23:54;;;;;;;12.90;5.40;;;11.60;99.90;;;;;;5004436;28;20795;-71
2022/12/25 01:26:24;;;;;;;11.73;5.10;;;11.70;99.90;;;;;;5006923;28;20175;-70
2022/12/25 01:28:50;;;;;;;7.07;3.67;;;11.70;99.90;;;;;;5001110;28;20644;-71
2022/12/25 01:31:19;;;;;;;6.53;2.90;;;11.60;99.90;;;;;;5001553;28;20549;-71
2022/12/25 01:33:45;;;;;;;10.40;4.47;;;11.60;99.90;;;;;;5002101;28;20180;-71
2022/12/25 01:36:19;;;;;;;7.23;3.00;;;11.60;99.90;;;;;;5004668;28;20322;-71
2022/12/25 01:38:45;;;;;;;14.63;5.50;;;11.60;99.90;;;;;;4996929;28;20214;-71
2022/12/25 01:41:13;;;;;;;10.80;4.43;;;11.70;99.90;;;;;;5000396;28;20751;-71
2022/12/25 01:44:03;;;;;;;7.70;3.27;;;11.60;99.90;;;;;;4998566;28;20206;-71
2022/12/25 01:46:30;;;;;;;8.20;3.20;;;11.60;99.90;;;;;;5002599;28;20218;-70
2022/12/25 01:49:01;;;;;;;6.90;2.67;;;11.60;99.90;;;;;;5002834;28;20261;-70
2022/12/25 01:51:38;;;;;;;9.80;4.30;;;11.60;99.90;;;;;;5001069;28;20233;-71
2022/12/25 01:54:08;;;;;;;7.87;3.47;;;11.60;99.90;;;;;;5001725;28;20647;-71
2022/12/25 01:56:37;;;;;;;7.60;3.57;;;11.60;99.90;;;;;;5000538;28;20250;-71
2022/12/25 01:59:05;;;;;;;7.23;3.00;;;11.60;99.90;;;;;;5012016;28;20211;-71
2022/12/25 02:01:31;;;;;;;4.57;2.47;;;11.60;99.90;;;;;;5010484;28;20838;-71
2022/12/25 02:04:05;;;;;;;4.87;2.67;;;11.60;99.90;;;;;;5009287;28;20222;-71
2022/12/25 02:06:33;;;;;;;8.83;4.37;;;11.70;99.90;;;;;;5004903;28;20191;-71
2022/12/25 02:08:59;;;;;;;8.37;3.40;;;11.70;99.90;;;;;;5011215;28;20290;-71
2022/12/25 02:14:09;;;;;;;10.90;4.53;;;11.60;99.90;;;;;;5009233;28;20191;-71
2022/12/25 02:16:40;;;;;;;12.47;4.60;;;11.60;99.90;;;;;;5007533;28;20186;-70
2022/12/25 02:19:38;;;;;;;7.43;3.70;;;11.60;99.90;;;;;;5008334;28;20229;-71
2022/12/25 02:22:12;;;;;;;3.87;2.23;;;11.60;99.90;;;;;;4983631;28;20281;-71
2022/12/25 02:24:53;;;;;;;5.97;3.20;;;11.60;99.90;;;;;;5004209;28;20644;-71
2022/12/25 02:27:56;;;;;;;11.67;4.20;;;11.50;99.90;;;;;;5003452;28;20214;-71
2022/12/25 02:30:22;;;;;;;5.47;2.90;;;11.60;99.90;;;;;;5004424;28;20837;-71
2022/12/25 02:34:01;;;;;;;7.77;3.40;;;11.60;99.90;;;;;;5002739;28;20187;-71
2022/12/25 02:35:49;;;;;;;14.47;6.53;;;11.50;99.90;;;;;;5002945;28;20267;-71
2022/12/25 02:38:23;;;;;;;7.87;3.47;;;11.60;99.90;;;;;;5003177;28;20196;-71
2022/12/25 02:40:54;;;;;;;6.77;2.37;;;11.60;99.90;;;;;;4997495;28;20294;-71
2022/12/25 03:08:50;;;;;;;20.93;7.47;;;11.60;99.90;;;;;;5007987;28;20206;-71
2022/12/25 03:11:49;;;;;;;9.17;4.50;;;11.60;99.90;;;;;;5006806;28;20184;-71
2022/12/25 03:16:57;;;;;;;9.03;4.20;;;11.60;99.90;;;;;;5018757;28;20239;-70
2022/12/25 03:27:57;;;;;;;14.87;6.77;;;11.60;99.90;;;;;;5004928;28;20353;-71
2022/12/25 03:33:28;;;;;;;10.67;4.13;;;11.60;99.90;;;;;;4998553;28;20276;-71
2022/12/25 03:36:11;;;;;;;9.07;4.27;;;11.60;99.90;;;;;;5002866;28;20193;-71
2022/12/25 04:37:39;;;;;;;4.27;1.97;;;11.30;99.90;;;;;;4999930;28;20785;-70
2022/12/25 04:40:06;;;;;;;2.90;1.90;;;11.30;99.90;;;;;;5001526;28;20190;-71
2022/12/25 04:42:31;;;;;;;4.10;2.00;;;11.40;99.90;;;;;;4998760;28;20274;-71
2022/12/25 04:44:57;;;;;;;2.90;1.70;;;11.40;99.90;;;;;;4997075;28;20215;-70
2022/12/25 04:47:23;;;;;;;3.00;1.63;;;11.40;99.90;;;;;;5001545;28;20198;-70
2022/12/25 04:49:49;;;;;;;4.40;1.77;;;11.50;99.90;;;;;;5003991;28;20213;-70
2022/12/25 04:52:15;;;;;;;2.83;1.70;;;11.50;99.90;;;;;;5004010;28;20180;-70
2022/12/25 04:54:41;;;;;;;4.70;1.80;;;11.50;99.90;;;;;;5002988;28;20238;-70
2022/12/25 04:57:06;;;;;;;4.20;2.00;;;11.50;99.90;;;;;;5009893;28;20628;-70
2022/12/25 04:59:32;;;;;;;4.83;1.90;;;11.50;99.90;;;;;;5006621;28;20183;-69
2022/12/25 05:01:58;;;;;;;4.90;2.40;;;11.60;99.90;;;;;;5004172;28;20202;-70
2022/12/25 05:04:23;;;;;;;5.67;2.00;;;11.60;99.90;;;;;;5006194;28;20211;-70
2022/12/25 05:06:49;;;;;;;4.47;2.07;;;11.60;99.90;;;;;;5005241;28;20183;-70
2022/12/25 05:09:15;;;;;;;3.27;1.80;;;11.60;99.90;;;;;;5007713;28;20217;-69
2022/12/25 05:11:41;;;;;;;5.27;2.10;;;11.60;99.90;;;;;;5006353;28;20191;-70
2022/12/25 05:14:06;;;;;;;5.97;2.30;;;11.60;99.90;;;;;;5000200;28;20706;-70
2022/12/25 05:16:32;;;;;;;3.57;2.27;;;11.60;99.90;;;;;;5004510;28;20217;-70
2022/12/25 05:18:58;;;;;;;3.57;2.30;;;11.60;99.90;;;;;;5001039;28;20229;-70
2022/12/25 05:21:24;;;;;;;5.57;2.67;;;11.60;99.90;;;;;;5006588;28;20198;-70
2022/12/25 05:23:50;;;;;;;6.23;2.60;;;11.60;99.90;;;;;;4997235;28;20218;-70
2022/12/25 05:26:19;;;;;;;6.27;2.60;;;11.60;99.90;;;;;;5002213;28;20219;-70
2022/12/25 05:28:45;;;;;;;3.97;2.37;;;11.50;99.90;;;;;;5000878;28;20202;-69
2022/12/25 05:31:11;;;;;;;4.10;2.50;;;11.50;99.90;;;;;;4999830;28;20172;-70
2022/12/25 05:33:37;;;;;;;7.07;2.70;;;11.50;99.90;;;;;;5005105;28;20658;-70
2022/12/25 05:36:04;;;;;;;5.03;2.70;;;11.60;99.90;;;;;;4999811;28;20543;-70
2022/12/25 05:38:30;;;;;;;5.17;2.80;;;11.60;99.90;;;;;;5006814;28;20207;-70
2022/12/25 05:40:57;;;;;;;5.03;2.43;;;11.60;99.90;;;;;;5002378;28;20191;-70
2022/12/25 05:43:23;;;;;;;4.30;2.23;;;11.60;99.90;;;;;;5002949;28;20695;-70
2022/12/25 05:45:49;;;;;;;4.20;2.20;;;11.60;99.90;;;;;;5008872;28;20183;-70
2022/12/25 05:48:15;;;;;;;4.00;2.20;;;11.60;99.90;;;;;;5002367;28;20819;-70
2022/12/25 05:50:41;;;;;;;5.33;2.37;;;11.50;99.90;;;;;;5000239;28;20790;-70
2022/12/25 05:53:09;;;;;;;5.50;2.70;;;11.50;99.90;;;;;;5003147;28;20191;-70
2022/12/25 05:55:37;;;;;;;3.80;2.50;;;11.40;99.90;;;;;;5003292;28;20175;-70
2022/12/25 05:58:04;;;;;;;3.93;2.50;;;11.40;99.90;;;;;;5005509;28;20203;-70
2022/12/25 06:00:30;;;;;;;5.03;2.83;;;11.30;99.90;;;;;;5000416;28;20603;-70
2022/12/25 06:02:55;;;;;;;5.03;2.80;;;11.30;99.90;;;;;;4998063;28;20187;-70
2022/12/25 06:05:21;;;;;;;7.13;2.87;;;11.30;99.90;;;;;;5004401;28;20211;-70
2022/12/25 06:07:47;;;;;;;7.53;3.60;;;11.30;99.90;;;;;;5001003;28;20210;-70
2022/12/25 06:10:12;;;;;;;6.90;4.33;;;11.30;99.90;;;;;;5006437;28;20179;-70
2022/12/25 06:12:38;;;;;;;4.73;3.43;;;11.30;99.90;;;;;;4998951;28;20190;-70
2022/12/25 06:15:05;;;;;;;6.13;3.17;;;11.20;99.90;;;;;;4997744;28;20193;-70
2022/12/25 06:17:30;;;;;;;5.27;3.40;;;11.20;99.90;;;;;;5004049;28;20211;-70
2022/12/25 06:19:56;;;;;;;6.23;3.70;;;11.20;99.90;;;;;;4994016;28;20191;-70
2022/12/25 06:22:22;;;;;;;6.23;3.30;;;11.30;99.90;;;;;;4998958;28;20188;-70
2022/12/25 06:24:48;;;;;;;7.37;3.67;;;11.20;99.90;;;;;;5003227;28;20203;-70
2022/12/25 06:27:14;;;;;;;6.90;3.17;;;11.30;99.90;;;;;;4995489;28;20195;-70
2022/12/25 06:29:40;;;;;;;6.37;3.60;;;11.30;99.90;;;;;;4998469;28;20314;-70
2022/12/25 06:32:05;;;;;;;8.10;3.63;;;11.20;99.90;;;;;;4996429;28;20271;-70
2022/12/25 06:34:31;;;;;;;5.93;3.20;;;11.30;99.90;;;;;;4993893;28;20265;-69
2022/12/25 06:36:57;;;;;;;5.80;3.30;;;11.20;99.90;;;;;;4993379;28;20217;-70
2022/12/25 06:39:24;;;;;;;4.97;3.00;;;11.30;99.90;;;;;;4997240;28;20183;-72
2022/12/25 06:41:50;;;;;;;5.30;3.20;;;11.20;99.90;;;;;;5003007;28;20900;-77
2022/12/25 06:44:15;;;;;;;6.37;3.20;;;11.30;99.90;;;;;;4994880;28;20195;-75
2022/12/25 06:46:41;;;;;;;6.67;2.93;;;11.30;99.90;;;;;;4998383;28;20186;-74
2022/12/25 06:49:08;;;;;;;4.07;2.63;;;11.30;99.90;;;;;;4999324;28;20568;-77
2022/12/25 06:51:34;;;;;;;3.80;2.23;;;11.40;99.90;;;;;;5006678;28;20250;-79
2022/12/25 06:54:03;;;;;;;3.83;2.23;;;11.40;99.90;;;;;;5001016;28;20203;-74
2022/12/25 06:56:30;;;;;;;4.47;2.07;;;11.50;99.90;;;;;;5004818;28;20191;-75
2022/12/25 06:59:01;;;;;;;4.43;1.93;;;11.50;99.90;;;;;;4993733;28;20385;-74
2022/12/25 07:01:36;;;;;;;3.17;2.13;;;11.60;99.90;;;;;;5003598;28;20846;-74
2022/12/25 07:04:12;;;;;;;3.40;2.10;;;11.70;99.90;;;;;;5002498;28;20492;-75
2022/12/25 07:06:37;;;;;;;2.17;1.80;;;11.70;99.90;;;;;;5002439;28;20206;-74
2022/12/25 07:09:03;;;;;;;3.80;1.83;;;11.80;99.90;;;;;;4991878;28;20192;-72
2022/12/25 07:11:29;;;;;;;3.13;1.80;;;11.80;99.90;;;;;;5000421;28;20178;-73
2022/12/25 07:13:55;;;;;;;3.27;2.10;;;11.80;99.90;;;;;;4995311;28;20847;-71
2022/12/25 07:16:22;;;;;;;2.13;1.77;;;11.90;99.90;;;;;;5002893;28;20183;-73
2022/12/25 07:18:47;;;;;;;3.13;1.70;;;11.90;99.90;;;;;;4996889;28;20867;-74
2022/12/25 07:21:16;;;;;;;3.37;1.87;;;11.90;99.90;;;;;;4998408;28;20194;-74
2022/12/25 07:23:43;;;;;;;3.90;1.73;;;11.90;99.90;;;;;;4992566;28;20231;-75
2022/12/25 07:26:11;;;;;;;2.03;1.67;;;12.00;99.90;;;;;;4992974;28;20604;-73
2022/12/25 07:28:37;;;;;;;3.53;1.87;;;12.00;99.90;;;;;;4994874;28;20577;-74
2022/12/25 07:31:05;;;;;;;3.47;1.97;;;12.00;99.90;;;;;;4992207;28;20238;-75
2022/12/25 07:33:31;;;;;;;4.43;1.60;;;12.00;99.90;;;;;;4991110;28;20238;-74
2022/12/25 07:35:57;;;;;;;3.07;2.00;;;12.00;99.90;;;;;;4993372;28;20196;-76
2022/12/25 07:38:23;;;;;;;2.67;1.70;;;12.00;99.90;;;;;;4984681;28;20905;-74
2022/12/25 07:40:48;;;;;;;4.50;2.10;;;12.00;99.90;;;;;;4998787;28;20203;-72
2022/12/25 07:43:14;;;;;;;4.73;2.10;;;12.00;99.90;;;;;;5003938;28;20570;-77
2022/12/25 07:45:40;;;;;;;5.67;2.00;;;11.90;99.90;;;;;;5005662;28;20187;-75
2022/12/25 07:48:06;;;;;;;2.90;1.73;;;11.90;99.90;;;;;;4999572;28;20214;-75
2022/12/25 07:50:32;;;;;;;4.87;2.07;;;11.90;99.90;;;;;;4998143;28;20497;-75
2022/12/25 07:52:58;;;;;;;2.80;1.70;;;12.00;99.90;;;;;;5002547;28;20647;-75
2022/12/25 07:55:24;;;;;;;2.10;1.60;;;12.00;99.90;;;;;;5003454;28;20207;-74
2022/12/25 07:57:50;;;;;;;3.67;1.57;;;12.00;99.90;;;;;;4998140;28;20199;-76
2022/12/25 08:00:16;;;;;;;3.13;1.80;;;12.00;99.90;;;;;;5003380;28;20679;-76
2022/12/25 08:02:42;;;;;;;2.10;1.70;;;12.00;99.90;;;;;;4998851;28;20188;-76
2022/12/25 08:05:08;;;;;;;2.90;1.90;;;12.10;99.90;;;;;;5005566;28;20599;-76
2022/12/25 08:07:37;;;;;;;2.27;1.77;;;12.10;99.90;;;;;;5003731;28;20210;-76
2022/12/25 08:10:03;;;;;;;3.33;1.70;;;12.10;99.90;;;;;;5002801;28;20203;-76
2022/12/25 08:12:29;;;;;;;3.00;1.77;;;12.20;99.90;;;;;;4994602;28;20192;-76
2022/12/25 08:14:54;;;;;;;2.60;1.70;;;12.20;99.90;;;;;;4986145;28;20200;-77
2022/12/25 08:17:20;;;;;;;2.77;1.80;;;12.20;99.90;;;;;;5006734;28;20222;-77
2022/12/25 08:19:46;;;;;;;2.33;1.93;;;12.20;99.90;;;;;;5015135;28;20172;-78
2022/12/25 08:22:12;;;;;;;2.67;2.07;;;12.20;99.90;;;;;;5006573;28;20191;-78
2022/12/25 08:24:37;;;;;;;3.40;1.80;;;12.30;99.90;;;;;;5007529;28;20217;-76
2022/12/25 08:27:03;;;;;;;3.70;2.23;;;12.30;99.90;;;;;;4996836;28;20201;-76
2022/12/25 08:29:29;;;;;;;2.53;1.97;;;12.40;99.90;;;;;;4999664;28;20173;-76
2022/12/25 08:31:55;;;;;;;2.87;1.80;;;12.40;99.90;;;;;;5008972;28;20202;-74
2022/12/25 08:34:21;;;;;;;2.67;1.80;;;12.40;99.90;;;;;;5007353;28;20172;-74
2022/12/25 08:36:47;;;;;;;2.33;1.90;;;12.40;99.90;;;;;;5003242;28;20297;-75
2022/12/25 08:39:13;;;;;;;3.57;2.13;;;12.40;99.90;;;;;;4999162;28;20283;-74
2022/12/25 08:41:39;;;;;;;2.50;1.90;;;12.50;99.90;;;;;;5001521;28;20179;-75
2022/12/25 08:44:05;;;;;;;2.30;1.63;;;12.50;99.90;;;;;;5002014;28;20219;-75
2022/12/25 08:46:31;;;;;;;2.63;1.80;;;12.50;99.90;;;;;;4998884;28;20522;-76
2022/12/25 08:48:57;;;;;;;2.53;1.90;;;12.50;99.90;;;;;;5003003;28;20742;-75
2022/12/25 08:51:24;;;;;;;3.47;2.10;;;12.50;99.90;;;;;;5007034;28;20179;-76
2022/12/25 08:53:52;;;;;;;2.40;1.80;;;12.50;99.90;;;;;;4994281;28;20184;-75
2022/12/25 08:56:19;;;;;;;2.23;1.70;;;12.50;99.90;;;;;;5003701;28;20270;-74
2022/12/25 08:58:45;;;;;;;3.07;1.90;;;12.50;99.90;;;;;;5001049;28;20204;-75
2022/12/25 09:01:12;;;;;;;2.27;1.80;;;12.60;99.90;;;;;;5003208;28;20905;-75
2022/12/25 09:03:38;;;;;;;4.23;2.20;;;12.60;99.90;;;;;;5000055;28;20439;-75
2022/12/25 09:06:14;;;;;;;3.77;1.67;;;12.70;99.90;;;;;;4989487;28;20198;-75
2022/12/25 09:08:39;;;;;;;2.33;1.73;;;12.70;99.90;;;;;;4999931;28;20212;-75
2022/12/25 09:11:12;;;;;;;2.07;1.77;;;12.70;99.90;;;;;;5003502;28;20195;-74
2022/12/25 09:13:38;;;;;;;3.53;1.80;;;12.70;99.90;;;;;;4986508;28;20193;-76
2022/12/25 09:16:09;;;;;;;2.97;1.70;;;12.80;99.90;;;;;;5004923;28;20650;-75
2022/12/25 09:18:35;;;;;;;4.00;2.10;;;12.90;99.90;;;;;;4994491;28;20219;-75
2022/12/25 09:21:05;;;;;;;2.80;1.80;;;12.90;99.90;;;;;;5001737;28;20863;-74
2022/12/25 09:23:33;;;;;;;2.10;1.70;;;12.90;99.90;;;;;;5000908;28;20295;-78
2022/12/25 09:26:01;;;;;;;4.23;1.80;;;12.90;99.90;;;;;;5002671;28;20437;-80
2022/12/25 09:28:27;;;;;;;2.17;1.70;;;12.90;99.90;;;;;;5000164;28;20199;-76
2022/12/25 09:30:53;;;;;;;2.87;2.00;;;12.90;99.90;;;;;;4996695;28;20742;-76
2022/12/25 09:33:19;;;;;;;1.93;1.73;;;12.90;99.90;;;;;;5002248;28;20175;-76
2022/12/25 09:36:00;;;;;;;2.63;2.00;;;12.90;99.90;;;;;;5006843;28;20181;-74
2022/12/25 09:38:27;;;;;;;2.93;2.20;;;13.00;99.90;;;;;;4995961;28;20287;-75
2022/12/25 09:41:04;;;;;;;3.03;2.67;;;13.00;99.90;;;;;;4996896;28;20239;-76
2022/12/25 09:43:32;;;;;;;6.83;3.37;;;12.90;99.90;;;;;;4997133;28;20241;-75
2022/12/25 09:46:01;;;;;;;3.53;3.20;;;12.90;99.90;;;;;;5005402;28;20204;-75
2022/12/25 09:48:30;;;;;;;5.63;3.50;;;12.80;99.90;;;;;;5000458;28;20206;-76
2022/12/25 09:51:05;;;;;;;4.13;3.40;;;12.80;99.90;;;;;;4985701;28;20219;-78
2022/12/25 09:53:42;;;;;;;6.57;3.60;;;12.90;99.90;;;;;;5000537;28;20888;-75
2022/12/25 09:56:24;;;;;;;4.90;3.80;;;12.90;99.90;;;;;;5000320;28;20195;-74
2022/12/25 09:58:51;;;;;;;5.03;3.23;;;13.00;99.90;;;;;;4995651;28;20216;-74
2022/12/25 10:01:34;;;;;;;5.30;3.50;;;13.10;99.90;;;;;;5000871;28;20262;-75
2022/12/25 10:04:24;;;;;;;5.50;3.60;;;13.10;99.90;;;;;;4991736;28;20203;-73
2022/12/25 10:07:02;;;;;;;7.17;4.10;;;13.20;99.90;;;;;;4997406;28;20292;-74
2022/12/25 10:09:48;;;;;;;6.27;4.13;;;13.20;99.90;;;;;;4999087;28;20184;-76
2022/12/25 10:12:55;;;;;;;5.63;3.87;;;13.20;99.90;;;;;;5000912;28;20218;-75
2022/12/25 10:15:32;;;;;;;4.73;3.50;;;13.10;99.90;;;;;;4995005;28;20693;-75
2022/12/25 10:18:46;;;;;;;6.33;4.20;;;13.10;99.90;;;;;;5001291;28;20712;-76
2022/12/25 10:21:14;;;;;;;7.73;4.17;;;13.10;99.90;;;;;;4935665;29;20201;-75
2022/12/25 10:23:45;;;;;;;5.33;4.00;;;13.10;99.90;;;;;;4936091;28;20217;-75
2022/12/25 10:26:18;;;;;;;6.93;4.40;;;13.10;99.90;;;;;;4969301;28;20689;-75
2022/12/25 10:28:57;;;;;;;7.13;4.40;;;13.20;99.90;;;;;;4995256;28;20214;-75
2022/12/25 10:31:26;;;;;;;6.90;4.63;;;13.30;99.90;;;;;;4993606;28;20222;-74
2022/12/25 10:33:52;;;;;;;5.83;4.23;;;13.30;99.90;;;;;;4995044;28;20196;-74
2022/12/25 10:36:22;;;;;;;7.53;4.50;;;13.30;99.90;;;;;;4990055;28;20315;-76
2022/12/25 10:38:48;;;;;;;5.87;4.30;;;13.30;99.90;;;;;;5000387;28;20210;-74
2022/12/25 10:41:48;;;;;;;6.87;4.50;;;13.30;99.90;;;;;;4991338;28;20572;-75
2022/12/25 10:44:19;;;;;;;5.03;4.23;;;13.40;99.90;;;;;;5000674;28;20772;-76
2022/12/25 10:46:51;;;;;;;5.37;4.53;;;13.40;99.90;;;;;;4995227;28;20193;-76
2022/12/25 10:49:23;;;;;;;5.40;3.90;;;13.40;99.90;;;;;;5001567;28;20180;-75
2022/12/25 10:51:50;;;;;;;5.00;4.10;;;13.40;99.90;;;;;;5004899;28;20171;-75
2022/12/25 10:54:23;;;;;;;4.57;3.67;;;13.50;99.90;;;;;;4997915;28;20185;-75
2022/12/25 10:57:12;;;;;;;6.03;3.60;;;13.50;99.90;;;;;;5005578;28;20189;-75
2022/12/25 10:59:49;;;;;;;5.40;3.70;;;13.50;99.90;;;;;;4998438;28;20241;-75
2022/12/25 11:02:18;;;;;;;4.80;3.90;;;13.50;99.90;;;;;;4998854;28;20240;-74
2022/12/25 11:04:44;;;;;;;4.67;3.93;;;13.50;99.90;;;;;;4998078;28;20611;-74
2022/12/25 11:07:24;;;;;;;4.47;3.70;;;13.50;99.90;;;;;;4993271;28;20183;-75
2022/12/25 11:10:03;;;;;;;4.57;3.53;;;13.50;99.90;;;;;;5003182;28;20179;-73
2022/12/25 11:12:36;;;;;;;5.10;3.60;;;13.50;99.90;;;;;;5009162;28;20383;-74
2022/12/25 11:15:27;;;;;;;6.27;4.07;;;13.60;99.90;;;;;;5011859;28;20182;-75
2022/12/25 11:17:52;;;;;;;5.77;3.77;;;13.60;99.90;;;;;;4992293;28;20238;-76
2022/12/25 11:20:19;;;;;;;5.53;3.93;;;13.70;99.90;;;;;;5005376;28;20178;-75
2022/12/25 11:22:46;;;;;;;5.60;3.90;;;13.80;99.90;;;;;;4998699;28;20203;-76
2022/12/25 11:25:19;;;;;;;4.87;3.30;;;13.80;99.90;;;;;;4994072;28;20208;-75
2022/12/25 11:27:59;;;;;;;5.23;3.80;;;13.80;99.90;;;;;;4994832;28;20210;-74
2022/12/25 11:30:27;;;;;;;5.57;4.10;;;14.00;99.90;;;;;;4991600;28;20181;-75
2022/12/25 11:32:55;;;;;;;8.33;6.40;;;14.00;99.90;;;;;;4993223;28;20673;-74
2022/12/25 11:35:24;;;;;;;5.57;4.60;;;14.00;99.90;;;;;;5001574;28;20183;-75
2022/12/25 11:37:51;;;;;;;7.70;5.60;;;14.00;99.90;;;;;;4999209;28;20665;-77
2022/12/25 11:40:23;;;;;;;5.77;4.10;;;14.00;99.90;;;;;;4998884;28;20191;-75
2022/12/25 11:42:54;;;;;;;4.83;3.17;;;13.90;99.90;;;;;;4996328;28;20184;-75
2022/12/25 11:45:33;;;;;;;5.23;4.50;;;14.00;99.90;;;;;;4999283;28;20667;-76
2022/12/25 11:48:01;;;;;;;4.87;3.83;;;14.00;99.90;;;;;;5000701;28;20246;-76
2022/12/25 11:50:40;;;;;;;9.20;6.77;;;14.10;99.90;;;;;;4999417;28;20722;-74
2022/12/25 11:53:34;;;;;;;9.70;7.00;;;14.10;99.90;;;;;;4990819;28;20180;-74
2022/12/25 11:56:06;;;;;;;9.87;6.57;;;14.20;99.90;;;;;;4987454;28;20247;-75
2022/12/25 11:58:45;;;;;;;7.50;5.47;;;14.30;99.90;;;;;;4999047;28;20854;-75
2022/12/25 12:02:12;;;;;;;5.43;3.53;;;14.40;99.90;;;;;;5006942;28;20178;-75
2022/12/25 12:04:43;;;;;;;22.20;11.57;;;14.30;99.90;;;;;;4962895;28;20212;-75
2022/12/25 12:07:18;;;;;;;18.00;9.73;;;14.30;99.90;;;;;;4961496;28;20212;-75
2022/12/25 12:09:55;;;;;;;33.60;17.50;;;14.40;99.90;;;;;;4984407;28;20195;-75
2022/12/25 12:12:51;;;;;;;21.70;12.70;;;14.50;99.90;;;;;;5002157;28;20210;-74
2022/12/25 12:15:20;;;;;;;32.53;16.90;;;14.80;99.90;;;;;;5001146;28;20261;-74
2022/12/25 12:17:46;;;;;;;14.67;8.70;;;15.10;99.90;;;;;;4992243;28;20245;-75
2022/12/25 12:20:28;;;;;;;28.23;13.20;;;15.10;99.90;;;;;;5000318;28;20191;-75
2022/12/25 12:22:54;;;;;;;22.57;11.43;;;15.20;99.90;;;;;;5004105;28;20240;-76
2022/12/25 12:25:21;;;;;;;11.40;6.63;;;15.20;99.90;;;;;;4996218;28;20674;-75
2022/12/25 12:27:56;;;;;;;6.73;4.50;;;15.20;99.90;;;;;;4998495;28;20229;-75
2022/12/25 12:30:34;;;;;;;4.60;3.43;;;15.20;99.90;;;;;;5006002;28;20178;-74
2022/12/25 12:33:05;;;;;;;4.17;3.30;;;15.20;99.90;;;;;;5006833;28;20187;-75
2022/12/25 12:35:34;;;;;;;4.57;3.60;;;15.20;99.90;;;;;;5000732;28;20183;-74
2022/12/25 12:38:15;;;;;;;14.13;7.13;;;15.20;99.90;;;;;;5003234;28;20226;-75
2022/12/25 12:40:50;;;;;;;9.23;4.97;;;15.10;99.90;;;;;;4994914;28;20194;-75
2022/12/25 12:43:39;;;;;;;5.40;3.90;;;15.10;99.90;;;;;;4998538;28;20241;-75
2022/12/25 12:46:16;;;;;;;5.30;3.87;;;15.20;99.90;;;;;;4995743;28;20203;-76
2022/12/25 12:48:45;;;;;;;5.40;3.60;;;15.20;99.90;;;;;;4997789;28;20208;-75
2022/12/25 12:51:25;;;;;;;5.23;3.67;;;15.10;99.90;;;;;;5000022;28;20239;-75
2022/12/25 12:54:20;;;;;;;8.37;3.77;;;15.10;99.90;;;;;;4999852;28;20223;-75
2022/12/25 12:57:03;;;;;;;4.23;3.60;;;15.30;99.90;;;;;;4998254;28;20273;-75
2022/12/25 12:59:45;;;;;;;4.80;3.77;;;15.50;99.90;;;;;;4999716;28;20722;-76
2022/12/25 13:02:26;;;;;;;6.33;4.07;;;15.60;99.90;;;;;;5000155;28;20232;-76
2022/12/25 13:05:04;;;;;;;6.37;4.87;;;15.70;99.90;;;;;;4998552;28;20237;-76
2022/12/25 13:07:52;;;;;;;22.87;11.80;;;15.80;99.90;;;;;;4997499;28;20225;-75
2022/12/25 13:10:32;;;;;;;5.50;4.17;;;15.70;99.90;;;;;;4990926;28;20912;-75
2022/12/25 13:13:06;;;;;;;10.97;7.10;;;15.70;99.90;;;;;;5001848;28;20861;-75
2022/12/25 13:15:34;;;;;;;6.00;4.60;;;15.60;99.90;;;;;;4992338;28;20183;-76
2022/12/25 13:18:05;;;;;;;6.80;4.10;;;15.70;99.90;;;;;;5001608;28;20598;-75
2022/12/25 13:20:53;;;;;;;3.90;3.40;;;15.70;99.90;;;;;;4995657;28;20188;-75
2022/12/25 13:23:34;;;;;;;4.33;3.50;;;15.60;99.90;;;;;;5000165;28;20233;-75
2022/12/25 13:26:16;;;;;;;3.90;3.57;;;15.60;99.90;;;;;;4995729;28;20679;-75
2022/12/25 13:28:45;;;;;;;3.77;3.20;;;15.60;99.90;;;;;;4999096;28;20212;-76
2022/12/25 13:31:21;;;;;;;5.33;4.03;;;15.50;99.90;;;;;;5002143;28;20181;-78
2022/12/25 13:33:46;;;;;;;3.53;3.23;;;15.50;99.90;;;;;;5004008;28;20199;-74
2022/12/25 13:36:13;;;;;;;5.83;4.60;;;15.40;99.90;;;;;;5003861;28;20187;-75
2022/12/25 13:38:45;;;;;;;6.63;5.63;;;15.30;99.90;;;;;;5005366;28;20208;-78
2022/12/25 13:43:59;;;;;;;6.00;3.50;;;15.10;99.90;;;;;;4998213;28;20682;-75
2022/12/25 13:46:26;;;;;;;3.27;2.97;;;15.10;99.90;;;;;;4994907;28;20210;-75
2022/12/25 13:49:00;;;;;;;6.50;5.03;;;15.10;99.90;;;;;;4999136;28;20203;-76
2022/12/25 13:51:26;;;;;;;4.30;3.90;;;15.10;99.90;;;;;;4997104;28;21844;-75
2022/12/25 13:54:05;;;;;;;4.60;3.60;;;15.10;99.90;;;;;;4996622;28;20223;-76
2022/12/25 13:56:33;;;;;;;4.23;3.30;;;15.00;99.90;;;;;;5008907;28;20640;-75
2022/12/25 13:58:58;;;;;;;6.13;3.20;;;14.90;99.90;;;;;;5006967;28;20208;-75
2022/12/25 14:01:25;;;;;;;3.20;2.60;;;14.90;99.90;;;;;;5002120;28;20185;-75
2022/12/25 14:03:51;;;;;;;2.97;2.67;;;14.90;99.90;;;;;;4996256;28;20213;-76
2022/12/25 14:06:22;;;;;;;4.40;2.60;;;14.90;99.90;;;;;;5006314;28;20180;-75
2022/12/25 14:08:50;;;;;;;2.90;2.40;;;14.90;99.90;;;;;;5001959;28;20203;-75
2022/12/25 14:11:19;;;;;;;2.50;2.30;;;15.00;99.90;;;;;;5006695;28;20191;-75
2022/12/25 14:13:48;;;;;;;3.20;2.83;;;15.00;99.90;;;;;;5006373;28;20289;-76
2022/12/25 14:16:19;;;;;;;3.00;2.60;;;14.90;99.90;;;;;;5003853;28;20265;-75
2022/12/25 14:18:57;;;;;;;3.60;3.00;;;14.90;99.90;;;;;;5006685;28;20245;-75
2022/12/25 14:21:33;;;;;;;3.03;2.67;;;14.80;99.90;;;;;;4997592;28;20187;-75
2022/12/25 14:23:59;;;;;;;3.70;2.83;;;14.70;99.90;;;;;;4998996;28;20685;-75
2022/12/25 14:26:29;;;;;;;4.93;3.33;;;14.70;99.90;;;;;;5001922;28;20643;-76
2022/12/25 14:29:04;;;;;;;3.80;3.23;;;14.60;99.90;;;;;;4998422;28;20300;-75
2022/12/25 14:31:31;;;;;;;4.63;3.10;;;14.60;99.90;;;;;;5000455;28;20591;-75
2022/12/25 14:34:00;;;;;;;4.23;3.40;;;14.60;99.90;;;;;;5001943;28;20191;-74
2022/12/25 14:36:26;;;;;;;4.80;3.83;;;14.60;99.90;;;;;;4998588;28;20659;-74
2022/12/25 14:39:01;;;;;;;4.40;3.63;;;14.50;99.90;;;;;;4998722;28;20209;-76
2022/12/25 14:41:40;;;;;;;7.80;3.97;;;14.50;99.90;;;;;;4994915;28;20595;-75
2022/12/25 14:44:38;;;;;;;3.63;3.33;;;14.50;99.90;;;;;;4995328;28;20773;-75
2022/12/25 14:47:05;;;;;;;4.10;3.27;;;14.40;99.90;;;;;;4999052;28;20190;-75
2022/12/25 14:49:31;;;;;;;5.37;3.40;;;14.40;99.90;;;;;;4998663;28;20679;-75
2022/12/25 14:51:58;;;;;;;5.07;3.20;;;14.40;99.90;;;;;;4993328;28;20716;-76